Winn, MI

09:13 AM EDT on Agosto 31, 2015 (GMT -0400)
NE Richland Twp | | Change Station
CLOSE
Current Station
Personal Weather Stations
Location: Vestaburg, MI
Elevation: 948 ft
Nearby Weather Stations
Active Advisory: Dense Fog Advisory

Elev 948 ft 43.44 °N, 84.96 °W | Updated 6 seconds ago

Brétema
Brétema
63.5 °F
Feels Like 63.5 °F
N
0.0
Vento Variable Vento from SSO
Gusts 0.0 mph

Hoxe
High -- | Low -- °F
--% Chance of Precip.
Yesterday
High -- | Low -- °F
Precip. -- pol
7:02 AM 8:17 PM
Waning Gibbous, 95% visible
Presión 30.06 pol
Visibilidade 1.0 Millas
Nubes Encapotado 300 ft
Nivel de Rosada 63 °F
Humidade 97%
Rainfall 0.00 pol
Fondo da neve Not available.
UV 1.0 out of 12
Pollen 10.40 out of 12
Air Quality Not available.
Flu Activity Not available.
METAR KMOP 311217Z AUTO 24004KT 1SM BR OVC003 18/17 A3006 RMK AO2 T01800170
Presión 30.06 pol
Visibilidade 1.0 Millas
Nubes Encapotado 300 ft
Nivel de Rosada 63 °F
Humidade 97%
Rainfall 0.00 pol
Fondo da neve Not available.
UV 1.0 out of 12
Pollen 10.40 out of 12
Air Quality Not available.
Flu Activity Not available.
METAR KMOP 311217Z AUTO 24004KT 1SM BR OVC003 18/17 A3006 RMK AO2 T01800170

10-Day Weather Forecast

×

Almanac

Astronomía

Aug. 31, 2015 Rise Set
Tempo actual
Crepúsculo civil
Crepúsculo náutico
Crepúsculo astronómico
Lúa
Lonxitude da luz visíbel
Length of Day
Tomorrow will be .
, % of the Moon is Illuminated

Today's Extremes

State Highs State Lows

Community

WunderPhotos

Upload Photos

1,851,226 photos uploaded!

WunderBlogs® & News

Nearby

Air Quality

  Air Quality AQ Index Pollutant
Not available.

Snow Depth

Station Depth Elevation

Earthquake Activity

Cidade Distance Mag. Time & Date
Minimum magnitude displayed is 2.5.

Coastal Water Temperatures

Lugar Temperatura

Stations

Nearby Weather Stations

Station Location Temp Vento Xeado Nivel de Rosada Humidade Vento Precip. Elev Actualización Type
                   
Dense Fog Advisory
Statement as of 03:30 AM EDT on Agosto 31, 2015

... Dense fog advisory remains in effect until 10 am EDT this
morning...

Hazardous weather...

* widespread dense fog with visibilities less than a quarter
   mile.

Impacts...

* travel will be difficult in dense fog.

Precautionary/preparedness actions...

* if driving... slow down... use low beam headlights... and leave
   plenty of distance ahead of you.

* Weather preparedness information is available on line at
   http://go.USA.Gov/5og.



Ostuno